createdAt,value
2022-09-18T00:01:38.627Z,16.20
2022-09-18T00:04:08.425Z,16.30
2022-09-18T00:06:39.035Z,16.30
2022-09-18T00:09:09.042Z,16.43
2022-09-18T00:11:40.764Z,16.63
2022-09-18T00:14:12.303Z,16.83
2022-09-18T00:16:41.428Z,16.60
2022-09-18T00:19:09.665Z,16.27
2022-09-18T00:21:40.746Z,15.90
2022-09-18T00:24:09.103Z,16.17
2022-09-18T00:26:37.253Z,16.30
2022-09-18T00:29:07.021Z,16.67
2022-09-18T00:31:36.583Z,16.03
2022-09-18T00:34:07.691Z,16.40
2022-09-18T00:36:36.435Z,16.00
2022-09-18T00:39:05.261Z,16.23
2022-09-18T00:41:36.253Z,16.47
2022-09-18T00:44:39.192Z,16.90
2022-09-18T00:47:27.378Z,16.40
2022-09-18T00:50:02.870Z,17.40
2022-09-18T00:52:36.131Z,17.67
2022-09-18T00:55:09.024Z,16.67
2022-09-18T00:57:41.596Z,16.50
2022-09-18T01:00:14.698Z,16.23
2022-09-18T01:02:44.029Z,16.50
2022-09-18T01:05:15.090Z,16.53
2022-09-18T01:08:09.653Z,16.60
2022-09-18T01:11:02.542Z,17.00
2022-09-18T01:13:42.136Z,16.17
2022-09-18T01:16:21.046Z,16.07
2022-09-18T01:18:56.652Z,15.80
2022-09-18T01:21:34.193Z,16.37
2022-09-18T01:24:35.348Z,16.30
2022-09-18T01:27:05.959Z,16.27
2022-09-18T01:29:45.954Z,16.27
2022-09-18T01:32:23.941Z,15.80
2022-09-18T01:34:59.952Z,15.93
2022-09-18T01:37:33.561Z,15.73
2022-09-18T01:40:10.468Z,15.83
2022-09-18T01:42:40.708Z,15.73
2022-09-18T01:45:13.663Z,16.53
2022-09-18T01:47:47.418Z,16.07
2022-09-18T01:50:18.524Z,16.57
2022-09-18T01:52:53.836Z,16.77
2022-09-18T01:55:26.680Z,16.20
2022-09-18T01:57:58.981Z,15.60
2022-09-18T02:00:30.385Z,15.43
2022-09-18T02:03:02.056Z,15.07
2022-09-18T02:05:33.481Z,14.93
2022-09-18T02:08:11.911Z,14.93
2022-09-18T02:10:44.175Z,14.90
2022-09-18T02:13:16.022Z,15.77
2022-09-18T02:15:48.265Z,15.67
2022-09-18T02:18:22.171Z,15.63
2022-09-18T02:20:50.686Z,15.60
2022-09-18T02:23:18.727Z,16.30
2022-09-18T02:25:51.387Z,15.70
2022-09-18T02:28:22.735Z,16.27
2022-09-18T02:30:52.240Z,16.10
2022-09-18T02:33:31.358Z,16.90
2022-09-18T02:36:31.167Z,15.87
2022-09-18T02:39:10.577Z,16.00
2022-09-18T02:41:47.717Z,15.80
2022-09-18T02:44:20.883Z,16.20
2022-09-18T02:46:59.732Z,16.37
2022-09-18T02:49:38.746Z,16.23
2022-09-18T02:52:12.964Z,16.70
2022-09-18T02:54:45.753Z,16.30
2022-09-18T02:57:17.842Z,15.83
2022-09-18T02:59:49.186Z,16.30
2022-09-18T03:02:20.296Z,16.03
2022-09-18T03:04:48.521Z,16.80
2022-09-18T03:07:16.988Z,16.53
2022-09-18T03:09:45.685Z,16.80
2022-09-18T03:12:16.452Z,16.63
2022-09-18T03:14:44.452Z,16.73
2022-09-18T03:17:12.942Z,16.90
2022-09-18T03:19:44.675Z,16.43
2022-09-18T03:22:12.780Z,15.60
2022-09-18T03:24:40.818Z,15.70
2022-09-18T03:27:10.513Z,15.60
2022-09-18T03:29:38.667Z,16.10
2022-09-18T03:32:06.781Z,16.33
2022-09-18T03:34:34.985Z,16.13
2022-09-18T03:37:04.497Z,17.00
2022-09-18T03:39:32.557Z,16.23
2022-09-18T03:42:00.570Z,16.57
2022-09-18T03:44:28.523Z,16.50
2022-09-18T03:46:56.532Z,16.03
2022-09-18T03:49:25.597Z,16.50
2022-09-18T03:51:53.612Z,16.53
2022-09-18T03:54:23.119Z,16.90
2022-09-18T03:56:53.339Z,16.50
2022-09-18T03:59:21.357Z,16.23
2022-09-18T04:01:49.390Z,16.20
2022-09-18T04:04:17.446Z,15.93
2022-09-18T04:06:45.427Z,15.87
2022-09-18T04:09:13.462Z,15.60
2022-09-18T04:11:42.873Z,15.67
2022-09-18T04:14:11.647Z,15.97
2022-09-18T04:16:39.700Z,16.17
2022-09-18T04:19:08.060Z,16.60
2022-09-18T04:21:36.170Z,16.10
2022-09-18T04:24:04.344Z,16.43
2022-09-18T04:26:32.341Z,16.77
2022-09-18T04:29:01.858Z,16.43
2022-09-18T04:31:29.972Z,15.87
2022-09-18T04:33:58.385Z,16.07
2022-09-18T04:36:26.428Z,15.77
2022-09-18T04:38:54.405Z,15.87
2022-09-18T04:41:22.392Z,16.07
2022-09-18T04:43:50.359Z,16.27
2022-09-18T04:46:19.748Z,16.17
2022-09-18T04:48:50.046Z,16.10
2022-09-18T04:51:18.247Z,16.03
2022-09-18T04:53:46.263Z,17.30
2022-09-18T04:56:14.324Z,16.57
2022-09-18T04:58:42.656Z,16.70
2022-09-18T05:01:10.883Z,16.37
2022-09-18T05:03:40.302Z,16.57
2022-09-18T05:06:08.621Z,16.20
2022-09-18T05:08:37.393Z,16.30
2022-09-18T05:11:05.808Z,16.27
2022-09-18T05:13:33.830Z,16.00
2022-09-18T05:16:02.265Z,15.90
2022-09-18T05:18:30.249Z,15.80
2022-09-18T05:21:02.535Z,15.83
2022-09-18T05:23:30.502Z,16.67
2022-09-18T05:25:58.531Z,15.63
2022-09-18T05:28:26.569Z,15.53
2022-09-18T05:31:00.784Z,15.50
2022-09-18T05:33:28.869Z,15.70
2022-09-18T05:35:58.184Z,15.63
2022-09-18T05:38:28.307Z,15.30
2022-09-18T05:41:00.949Z,18.20
2022-09-18T05:43:29.093Z,16.80
2022-09-18T05:45:57.780Z,16.63
2022-09-18T05:48:25.761Z,17.07
2022-09-18T05:50:53.789Z,15.60
2022-09-18T05:53:22.800Z,15.70
2022-09-18T05:55:52.418Z,15.57
2022-09-18T05:58:21.735Z,14.70
2022-09-18T06:00:51.296Z,14.80
2022-09-18T06:03:19.804Z,15.10
2022-09-18T06:05:54.097Z,14.83
2022-09-18T06:08:22.822Z,15.40
2022-09-18T06:10:53.492Z,16.40
2022-09-18T06:13:21.585Z,16.33
2022-09-18T06:15:52.279Z,16.90
2022-09-18T06:18:20.481Z,17.03
2022-09-18T06:20:54.478Z,17.03
2022-09-18T06:23:23.593Z,17.43
2022-09-18T06:25:59.751Z,17.50
2022-09-18T06:28:28.585Z,17.23
2022-09-18T06:30:56.788Z,17.07
2022-09-18T06:33:24.806Z,17.27
2022-09-18T06:35:53.033Z,16.40
2022-09-18T06:38:21.571Z,16.87
2022-09-18T06:40:51.021Z,17.13
2022-09-18T06:43:21.193Z,18.10
2022-09-18T06:45:53.369Z,18.05
2022-09-18T06:48:21.642Z,18.13
2022-09-18T06:50:53.729Z,18.30
2022-09-18T06:53:22.507Z,18.20
2022-09-18T06:55:50.866Z,18.02
2022-09-18T06:58:20.966Z,18.20
2022-09-18T07:00:51.395Z,18.80
2022-09-18T07:03:19.417Z,17.83
2022-09-18T07:05:47.398Z,17.30
2022-09-18T07:08:15.619Z,17.85
2022-09-18T07:10:43.960Z,17.35
2022-09-18T07:13:11.959Z,19.25
2022-09-18T07:15:43.438Z,19.42
2022-09-18T07:18:11.433Z,17.65
2022-09-18T07:20:39.504Z,17.52
2022-09-18T07:23:07.516Z,17.40
2022-09-18T07:25:35.948Z,45.87
2022-09-18T07:28:05.322Z,49.65
2022-09-18T07:30:33.548Z,51.33
2022-09-18T07:33:03.935Z,52.15
2022-09-18T07:35:32.852Z,53.90
2022-09-18T07:38:01.277Z,51.87
2022-09-18T07:40:29.693Z,52.17
2022-09-18T07:43:00.599Z,52.40
2022-09-18T07:45:28.652Z,52.85
2022-09-18T07:47:56.986Z,57.43
2022-09-18T07:50:26.355Z,69.10
2022-09-18T07:52:56.335Z,69.78
2022-09-18T07:55:25.594Z,73.03
2022-09-18T07:57:55.945Z,66.93
2022-09-18T08:00:23.987Z,70.03
2022-09-18T08:02:52.515Z,71.50
2022-09-18T08:05:20.594Z,71.82
2022-09-18T08:07:49.937Z,73.40
2022-09-18T08:10:18.148Z,73.72
2022-09-18T08:12:46.159Z,73.47
2022-09-18T08:15:14.244Z,75.07
2022-09-18T08:17:46.278Z,73.97
2022-09-18T08:20:14.501Z,73.00
2022-09-18T08:22:43.116Z,72.53
2022-09-18T08:25:12.863Z,78.32
2022-09-18T08:27:42.130Z,74.32
2022-09-18T08:30:13.215Z,74.22
2022-09-18T08:32:43.561Z,73.43
2022-09-18T08:35:12.042Z,75.18
2022-09-18T08:37:40.007Z,73.95
2022-09-18T08:40:10.234Z,73.43
2022-09-18T08:42:46.408Z,79.22
2022-09-18T08:45:32.376Z,78.57
2022-09-18T08:48:05.637Z,75.40
2022-09-18T08:50:38.743Z,74.93
2022-09-18T08:53:12.841Z,74.85
2022-09-18T08:55:45.459Z,74.45
2022-09-18T08:58:18.173Z,79.63
2022-09-18T09:00:49.550Z,79.28
2022-09-18T09:03:28.162Z,84.75
2022-09-18T09:06:00.029Z,84.38
2022-09-18T09:08:42.342Z,80.38
2022-09-18T09:11:16.969Z,84.28
2022-09-18T09:14:16.369Z,83.07
2022-09-18T09:16:45.732Z,87.00
2022-09-18T09:19:35.631Z,81.80
2022-09-18T09:22:08.514Z,83.70
2022-09-18T09:24:45.885Z,76.68
2022-09-18T09:27:22.851Z,82.45
2022-09-18T09:30:01.538Z,77.75
2022-09-18T09:32:34.241Z,76.78
2022-09-18T09:35:15.300Z,77.30
2022-09-18T09:37:45.716Z,82.63
2022-09-18T09:40:17.888Z,78.50
2022-09-18T09:42:51.749Z,78.05
2022-09-18T09:45:28.200Z,85.47
2022-09-18T09:48:04.808Z,81.90
2022-09-18T09:50:43.344Z,82.95
2022-09-18T09:53:13.369Z,86.00
2022-09-18T09:55:51.978Z,80.85
2022-09-18T09:58:29.680Z,80.18
2022-09-18T10:01:08.125Z,80.18
2022-09-18T10:04:00.906Z,80.25
2022-09-18T10:06:41.273Z,85.80
2022-09-18T10:09:16.639Z,79.93
2022-09-18T10:11:55.265Z,80.03
2022-09-18T10:14:28.913Z,79.85
2022-09-18T10:16:59.231Z,81.55
2022-09-18T10:19:36.689Z,86.18
2022-09-18T10:22:09.297Z,77.70
2022-09-18T10:24:48.009Z,82.22
2022-09-18T10:27:16.671Z,85.82
2022-09-18T10:29:45.500Z,81.90
2022-09-18T10:32:32.289Z,82.35
2022-09-18T10:35:00.334Z,83.50
2022-09-18T10:37:42.185Z,87.50
2022-09-18T10:40:30.793Z,88.38
2022-09-18T10:42:59.968Z,84.00
2022-09-18T10:45:30.297Z,86.80
2022-09-18T10:48:13.714Z,90.75
2022-09-18T10:50:53.970Z,86.40
2022-09-18T10:53:32.115Z,85.88
2022-09-18T10:56:05.967Z,85.05
2022-09-18T10:58:35.308Z,85.00
2022-09-18T11:01:05.913Z,83.95
2022-09-18T11:03:45.460Z,84.93
2022-09-18T11:06:19.522Z,84.93
2022-09-18T11:08:50.715Z,79.63
2022-09-18T11:11:26.256Z,78.05
2022-09-18T11:13:59.233Z,79.47
2022-09-18T11:16:30.285Z,82.85
2022-09-18T11:19:08.284Z,81.95
2022-09-18T11:21:45.339Z,83.40
2022-09-18T11:24:21.768Z,81.50
2022-09-18T11:26:54.452Z,84.80
2022-09-18T11:29:29.717Z,82.43
2022-09-18T11:32:03.551Z,82.03
2022-09-18T11:34:36.950Z,84.82
2022-09-18T11:37:09.399Z,85.85
2022-09-18T11:39:40.837Z,84.45
2022-09-18T11:42:12.258Z,82.18
2022-09-18T11:44:41.564Z,77.38
2022-09-18T11:47:33.855Z,78.15
2022-09-18T11:50:17.744Z,77.72
2022-09-18T11:52:49.079Z,73.30
2022-09-18T11:55:26.794Z,80.93
2022-09-18T11:57:58.650Z,83.22
2022-09-18T12:00:31.473Z,84.65
2022-09-18T12:03:07.001Z,82.95
2022-09-18T12:05:47.406Z,84.80
2022-09-18T12:08:19.436Z,85.07
2022-09-18T12:10:54.247Z,83.85
2022-09-18T12:13:45.385Z,82.05
2022-09-18T12:16:19.736Z,83.20
2022-09-18T12:18:55.309Z,82.47
2022-09-18T12:21:36.000Z,82.75
2022-09-18T12:24:04.443Z,86.40
2022-09-18T12:26:43.435Z,84.28
2022-09-18T12:29:21.575Z,85.00
2022-09-18T12:31:59.555Z,87.25
2022-09-18T12:34:37.707Z,80.78
2022-09-18T12:37:18.716Z,82.85
2022-09-18T12:40:06.465Z,86.75
2022-09-18T12:42:48.670Z,88.03
2022-09-18T12:45:32.679Z,87.85
2022-09-18T12:48:18.367Z,89.30
2022-09-18T12:51:01.936Z,83.38
2022-09-18T12:53:42.084Z,80.45
2022-09-18T12:56:20.676Z,80.07
2022-09-18T12:59:07.375Z,85.13
2022-09-18T13:01:39.600Z,77.93
2022-09-18T13:04:18.583Z,81.63
2022-09-18T13:06:53.950Z,86.00
2022-09-18T13:09:29.407Z,81.80
2022-09-18T13:12:01.164Z,77.32
2022-09-18T13:14:34.314Z,77.57
2022-09-18T13:17:09.542Z,77.43
2022-09-18T13:19:42.714Z,76.53
2022-09-18T13:22:16.684Z,77.82
2022-09-18T13:24:49.725Z,79.38
2022-09-18T13:27:19.262Z,80.65
2022-09-18T13:29:58.994Z,80.78
2022-09-18T13:32:39.869Z,78.00
2022-09-18T13:35:20.605Z,79.65
2022-09-18T13:37:49.814Z,80.30
2022-09-18T13:40:35.929Z,81.57
2022-09-18T13:43:33.623Z,79.25
2022-09-18T13:46:07.257Z,86.30
2022-09-18T13:48:42.831Z,82.25
2022-09-18T13:51:18.820Z,85.50
2022-09-18T13:53:46.891Z,82.43
2022-09-18T13:56:17.667Z,84.35
2022-09-18T13:58:55.981Z,86.68
2022-09-18T14:01:59.648Z,86.03
2022-09-18T14:04:50.691Z,86.15
2022-09-18T14:07:55.951Z,83.53
2022-09-18T14:11:13.976Z,85.97
2022-09-18T14:13:55.530Z,85.40
2022-09-18T14:16:40.694Z,85.53
2022-09-18T14:19:32.167Z,82.78
2022-09-18T14:22:01.427Z,81.72
2022-09-18T14:24:57.455Z,76.53
2022-09-18T14:27:53.559Z,76.10
2022-09-18T14:30:25.281Z,76.20
2022-09-18T14:33:05.515Z,75.63
2022-09-18T14:35:42.049Z,78.53
2022-09-18T14:38:27.634Z,76.68
2022-09-18T14:41:00.136Z,81.38
2022-09-18T14:43:28.650Z,78.70
2022-09-18T14:45:58.458Z,78.03
2022-09-18T14:48:31.576Z,82.00
2022-09-18T14:51:08.622Z,82.38
2022-09-18T14:53:45.056Z,80.85
2022-09-18T14:56:16.232Z,81.63
2022-09-18T14:58:47.764Z,83.03
2022-09-18T15:01:21.779Z,18.05
2022-09-18T15:03:52.415Z,18.30
2022-09-18T15:06:22.573Z,23.15
2022-09-18T15:08:53.373Z,18.10
2022-09-18T15:11:24.336Z,17.20
2022-09-18T15:13:54.360Z,15.00
2022-09-18T15:16:30.112Z,17.75
2022-09-18T15:18:59.468Z,17.63
2022-09-18T15:21:33.070Z,17.40
2022-09-18T15:24:03.661Z,17.15
2022-09-18T15:26:33.944Z,17.50
2022-09-18T15:29:03.500Z,18.35
2022-09-18T15:31:33.800Z,17.38
2022-09-18T15:34:06.510Z,17.25
2022-09-18T15:36:37.645Z,17.38
2022-09-18T15:39:07.588Z,17.83
2022-09-18T15:41:41.557Z,16.98
2022-09-18T15:44:47.968Z,17.48
2022-09-18T15:47:32.740Z,17.90
2022-09-18T15:50:02.318Z,17.27
2022-09-18T15:52:37.431Z,16.55
2022-09-18T15:55:12.839Z,17.73
2022-09-18T15:57:49.416Z,17.27
2022-09-18T16:00:19.988Z,17.40
2022-09-18T16:02:53.634Z,17.42
2022-09-18T16:05:22.990Z,17.38
2022-09-18T16:07:54.101Z,17.17
2022-09-18T16:10:45.542Z,39.90
2022-09-18T16:13:31.262Z,50.40
2022-09-18T16:16:25.047Z,168.35
2022-09-18T16:18:57.155Z,86.78
2022-09-18T16:21:28.174Z,117.35
2022-09-18T16:24:01.239Z,159.15
2022-09-18T16:26:32.204Z,151.85
2022-09-18T16:29:02.237Z,85.47
2022-09-18T16:31:32.974Z,16.30
2022-09-18T16:34:04.599Z,16.15
2022-09-18T16:36:34.370Z,16.15
2022-09-18T16:39:05.316Z,16.60
2022-09-18T16:41:34.200Z,16.40
2022-09-18T16:44:04.248Z,15.85
2022-09-18T16:46:35.654Z,16.60
2022-09-18T16:49:05.397Z,16.70
2022-09-18T16:51:33.665Z,16.20
2022-09-18T16:54:01.724Z,17.10
2022-09-18T16:56:34.794Z,16.10
2022-09-18T16:59:04.323Z,15.93
2022-09-18T17:01:48.601Z,16.42
2022-09-18T17:04:23.899Z,18.75
2022-09-18T17:06:51.976Z,16.50
2022-09-18T17:09:21.356Z,16.52
2022-09-18T17:11:49.507Z,16.33
2022-09-18T17:14:17.488Z,16.42
2022-09-18T17:16:45.942Z,19.83
2022-09-18T17:19:14.385Z,17.60
2022-09-18T17:21:44.456Z,18.38
2022-09-18T17:24:13.070Z,17.00
2022-09-18T17:26:44.538Z,17.60
2022-09-18T17:29:12.951Z,17.17
2022-09-18T17:31:44.709Z,17.05
2022-09-18T17:34:13.136Z,16.88
2022-09-18T17:36:41.224Z,17.15
2022-09-18T17:39:10.591Z,17.10
2022-09-18T17:41:39.114Z,17.40
2022-09-18T17:44:07.339Z,17.25
2022-09-18T17:46:35.404Z,18.45
2022-09-18T17:49:03.490Z,17.13
2022-09-18T17:51:32.709Z,16.70
2022-09-18T17:54:03.506Z,17.10
2022-09-18T17:56:34.299Z,16.80
2022-09-18T17:59:05.680Z,17.20
2022-09-18T18:01:36.661Z,18.05
2022-09-18T18:04:05.331Z,17.17
2022-09-18T18:06:33.420Z,17.25
2022-09-18T18:09:01.511Z,17.60
2022-09-18T18:11:29.667Z,17.45
2022-09-18T18:13:59.084Z,17.48
2022-09-18T18:16:30.607Z,16.92
2022-09-18T18:19:01.055Z,17.50
2022-09-18T18:21:30.473Z,18.10
2022-09-18T18:23:59.752Z,17.67
2022-09-18T18:26:28.982Z,17.50
2022-09-18T18:28:58.499Z,17.08
2022-09-18T18:31:27.284Z,16.98
2022-09-18T18:33:56.701Z,16.80
2022-09-18T18:36:26.977Z,16.80
2022-09-18T18:38:57.697Z,17.08
2022-09-18T18:41:27.794Z,17.02
2022-09-18T18:43:58.652Z,17.35
2022-09-18T18:46:29.106Z,17.30
2022-09-18T18:49:02.688Z,17.23
2022-09-18T18:51:32.876Z,16.55
2022-09-18T18:54:02.805Z,16.58
2022-09-18T18:56:32.373Z,17.30
2022-09-18T18:59:03.576Z,16.83
2022-09-18T19:01:32.852Z,16.60
2022-09-18T19:04:03.096Z,16.95
2022-09-18T19:06:31.408Z,18.05
2022-09-18T19:09:00.981Z,17.98
2022-09-18T19:11:31.526Z,17.67
2022-09-18T19:14:01.101Z,17.27
2022-09-18T19:16:32.273Z,17.92
2022-09-18T19:19:00.955Z,18.40
2022-09-18T19:21:29.784Z,18.40
2022-09-18T19:23:59.845Z,17.67
2022-09-18T19:26:29.329Z,17.60
2022-09-18T19:28:59.812Z,18.10
2022-09-18T19:31:30.501Z,17.50
2022-09-18T19:33:58.522Z,17.30
2022-09-18T19:36:29.019Z,18.10
2022-09-18T19:38:58.412Z,17.60
2022-09-18T19:41:33.379Z,17.70
2022-09-18T19:44:04.592Z,17.80
2022-09-18T19:46:34.113Z,17.33
2022-09-18T19:49:02.391Z,17.80
2022-09-18T19:51:33.307Z,17.30
2022-09-18T19:54:01.258Z,17.20
2022-09-18T19:56:42.576Z,17.17
2022-09-18T19:59:12.065Z,17.00
2022-09-18T20:01:41.540Z,18.40
2022-09-18T20:04:10.028Z,15.40
2022-09-18T20:06:40.586Z,15.80
2022-09-18T20:09:08.923Z,15.82
2022-09-18T20:11:37.039Z,15.23
2022-09-18T20:14:05.065Z,15.30
2022-09-18T20:16:33.120Z,15.05
2022-09-18T20:19:02.788Z,15.25
2022-09-18T20:21:30.801Z,15.50
2022-09-18T20:23:59.677Z,15.73
2022-09-18T20:26:28.878Z,16.23
2022-09-18T20:28:57.010Z,15.90
2022-09-18T20:31:25.213Z,16.10
2022-09-18T20:33:56.987Z,16.50
2022-09-18T20:36:27.170Z,16.63
2022-09-18T20:38:57.943Z,16.02
2022-09-18T20:41:29.930Z,16.05
2022-09-18T20:44:01.167Z,15.38
2022-09-18T20:46:29.468Z,15.05
2022-09-18T20:48:57.529Z,15.32
2022-09-18T20:51:28.790Z,15.50
2022-09-18T20:53:58.183Z,16.65
2022-09-18T20:56:29.497Z,17.55
2022-09-18T20:58:57.546Z,17.80
2022-09-18T21:01:28.930Z,17.92
2022-09-18T21:03:58.838Z,18.00
2022-09-18T21:06:31.775Z,17.73
2022-09-18T21:09:00.987Z,18.47
2022-09-18T21:11:30.804Z,18.17
2022-09-18T21:14:00.868Z,18.90
2022-09-18T21:16:31.183Z,17.90
2022-09-18T21:19:01.878Z,18.03
2022-09-18T21:21:33.866Z,18.50
2022-09-18T21:24:02.609Z,17.70
2022-09-18T21:26:33.417Z,18.38
2022-09-18T21:29:03.233Z,18.20
2022-09-18T21:31:33.579Z,18.10
2022-09-18T21:34:03.837Z,18.40
2022-09-18T21:36:38.415Z,18.00
2022-09-18T21:39:08.375Z,18.40
2022-09-18T21:41:39.415Z,18.40
2022-09-18T21:44:08.996Z,19.02
2022-09-18T21:46:39.058Z,18.50
2022-09-18T21:49:08.985Z,18.33
2022-09-18T21:51:41.221Z,18.35
2022-09-18T21:54:15.230Z,18.80
2022-09-18T21:56:44.154Z,19.20
2022-09-18T21:59:14.376Z,18.83
2022-09-18T22:01:43.616Z,18.45
2022-09-18T22:04:13.409Z,19.00
2022-09-18T22:06:45.397Z,18.92
2022-09-18T22:09:16.086Z,19.10
2022-09-18T22:11:45.119Z,19.30
2022-09-18T22:14:15.548Z,18.95
2022-09-18T22:16:45.115Z,19.30
2022-09-18T22:19:13.502Z,18.50
2022-09-18T22:21:45.396Z,18.60
2022-09-18T22:24:18.890Z,18.30
2022-09-18T22:26:49.294Z,18.75
2022-09-18T22:29:21.405Z,18.92
2022-09-18T22:31:49.886Z,18.98
2022-09-18T22:34:19.612Z,19.00
2022-09-18T22:36:49.955Z,18.40
2022-09-18T22:39:20.088Z,18.83
2022-09-18T22:41:48.797Z,18.70
2022-09-18T22:44:17.182Z,18.57
2022-09-18T22:46:46.887Z,18.58
2022-09-18T22:49:16.721Z,18.60
2022-09-18T22:51:46.501Z,19.70
2022-09-18T22:54:16.972Z,18.27
2022-09-18T22:56:46.948Z,18.90
2022-09-18T22:59:17.252Z,18.27
2022-09-18T23:01:49.107Z,18.75
2022-09-18T23:04:18.989Z,18.60
2022-09-18T23:06:47.829Z,19.20
2022-09-18T23:09:18.752Z,19.00
2022-09-18T23:11:48.206Z,19.00
2022-09-18T23:14:18.411Z,18.88
2022-09-18T23:16:47.040Z,18.70
2022-09-18T23:19:17.653Z,18.27
2022-09-18T23:21:45.997Z,18.25
2022-09-18T23:24:16.023Z,18.30
2022-09-18T23:26:46.952Z,18.45
2022-09-18T23:29:17.329Z,18.13
2022-09-18T23:31:47.235Z,18.50
2022-09-18T23:34:17.138Z,18.00
2022-09-18T23:36:47.166Z,17.88
2022-09-18T23:39:18.405Z,17.63
2022-09-18T23:41:48.188Z,18.20
2022-09-18T23:44:18.362Z,18.23
2022-09-18T23:46:47.670Z,18.15
2022-09-18T23:49:17.027Z,17.45
2022-09-18T23:51:46.768Z,18.05
2022-09-18T23:54:17.758Z,18.35
2022-09-18T23:56:47.889Z,18.13
2022-09-18T23:59:21.921Z,18.10
